createdAt,value
2018-08-10T00:01:39.200Z,6.63
2018-08-10T00:04:08.453Z,4.70
2018-08-10T00:06:37.624Z,7.47
2018-08-10T00:09:08.818Z,7.87
2018-08-10T00:11:38.003Z,6.47
2018-08-10T00:14:07.247Z,7.40
2018-08-10T00:16:36.503Z,6.27
2018-08-10T00:19:05.701Z,5.97
2018-08-10T00:21:34.929Z,6.27
2018-08-10T00:24:04.113Z,10.23
2018-08-10T00:26:33.326Z,5.50
2018-08-10T00:29:02.528Z,6.60
2018-08-10T00:31:32.162Z,4.87
2018-08-10T00:34:01.295Z,8.90
2018-08-10T00:36:30.482Z,6.80
2018-08-10T00:38:59.639Z,4.77
2018-08-10T00:41:28.884Z,5.97
2018-08-10T00:43:58.843Z,8.10
2018-08-10T00:46:28.123Z,8.27
2018-08-10T00:48:57.355Z,12.97
2018-08-10T00:51:26.550Z,14.90
2018-08-10T00:53:55.739Z,13.40
2018-08-10T00:56:24.944Z,15.90
2018-08-10T00:58:54.155Z,17.30
2018-08-10T01:01:23.419Z,13.17
2018-08-10T01:03:52.630Z,14.07
2018-08-10T01:06:21.846Z,15.93
2018-08-10T01:08:51.130Z,12.13
2018-08-10T01:11:20.339Z,13.47
2018-08-10T01:13:49.511Z,9.43
2018-08-10T01:16:18.734Z,6.93
2018-08-10T01:18:47.893Z,7.90
2018-08-10T01:21:17.150Z,6.33
2018-08-10T01:23:46.335Z,7.23
2018-08-10T01:26:15.530Z,9.10
2018-08-10T01:28:44.818Z,8.80
2018-08-10T01:31:14.056Z,10.43
2018-08-10T01:33:43.269Z,9.47
2018-08-10T01:36:12.402Z,8.70
2018-08-10T01:38:41.661Z,9.10
2018-08-10T01:41:10.815Z,8.40
2018-08-10T01:43:39.982Z,14.37
2018-08-10T01:46:09.205Z,8.50
2018-08-10T01:48:38.371Z,10.63
2018-08-10T01:51:07.573Z,9.60
2018-08-10T01:53:36.789Z,6.00
2018-08-10T01:56:05.925Z,7.60
2018-08-10T01:58:35.039Z,8.03
2018-08-10T02:01:08.188Z,7.90
2018-08-10T02:03:37.825Z,11.83
2018-08-10T02:06:07.104Z,7.33
2018-08-10T02:08:36.267Z,6.93
2018-08-10T02:11:05.498Z,10.30
2018-08-10T02:13:34.694Z,10.27
2018-08-10T02:16:03.934Z,10.17
2018-08-10T02:18:33.104Z,7.87
2018-08-10T02:21:02.319Z,11.07
2018-08-10T02:23:31.729Z,11.33
2018-08-10T02:26:00.917Z,11.40
2018-08-10T02:28:30.107Z,8.97
2018-08-10T02:30:59.323Z,12.80
2018-08-10T02:33:28.484Z,10.40
2018-08-10T02:35:57.682Z,11.83
2018-08-10T02:38:26.811Z,8.40
2018-08-10T02:40:55.969Z,8.33
2018-08-10T02:43:25.129Z,11.13
2018-08-10T02:45:54.327Z,7.80
2018-08-10T02:48:23.551Z,7.70
2018-08-10T02:50:52.822Z,12.03
2018-08-10T02:53:22.017Z,6.27
2018-08-10T02:55:51.285Z,8.20
2018-08-10T02:58:20.462Z,8.60
2018-08-10T03:00:49.575Z,9.10
2018-08-10T03:03:20.232Z,9.87
2018-08-10T03:05:49.471Z,7.43
2018-08-10T03:08:18.656Z,12.13
2018-08-10T03:10:47.807Z,7.90
2018-08-10T03:13:17.032Z,8.07
2018-08-10T03:15:46.245Z,8.77
2018-08-10T03:18:15.430Z,6.10
2018-08-10T03:20:44.561Z,9.77
2018-08-10T03:23:13.824Z,10.10
2018-08-10T03:25:42.975Z,9.60
2018-08-10T03:28:12.096Z,6.07
2018-08-10T03:30:41.270Z,6.83
2018-08-10T03:33:11.151Z,9.13
2018-08-10T03:35:40.314Z,11.03
2018-08-10T03:38:09.472Z,9.73
2018-08-10T03:40:38.599Z,11.23
2018-08-10T03:43:07.817Z,9.37
2018-08-10T03:45:37.026Z,7.37
2018-08-10T03:48:06.583Z,9.20
2018-08-10T03:50:35.757Z,13.97
2018-08-10T03:53:05.012Z,10.00
2018-08-10T03:55:34.152Z,7.90
2018-08-10T03:58:03.345Z,9.67
2018-08-10T04:00:33.287Z,8.97
2018-08-10T04:03:02.490Z,9.67
2018-08-10T04:05:31.684Z,8.00
2018-08-10T04:08:00.923Z,9.07
2018-08-10T04:10:30.737Z,6.57
2018-08-10T04:12:59.989Z,8.83
2018-08-10T04:15:29.559Z,9.53
2018-08-10T04:17:58.823Z,7.70
2018-08-10T04:20:28.017Z,8.23
2018-08-10T04:22:57.776Z,4.90
2018-08-10T04:25:27.011Z,8.43
2018-08-10T04:27:56.912Z,7.63
2018-08-10T04:30:26.704Z,10.47
2018-08-10T04:32:55.953Z,6.83
2018-08-10T04:35:25.084Z,7.03
2018-08-10T04:37:54.218Z,6.60
2018-08-10T04:40:23.368Z,4.80
2018-08-10T04:42:53.152Z,4.93
2018-08-10T04:45:22.337Z,4.40
2018-08-10T04:47:51.654Z,7.20
2018-08-10T04:50:21.383Z,6.80
2018-08-10T04:52:50.551Z,4.60
2018-08-10T04:55:19.690Z,6.43
2018-08-10T04:57:48.957Z,9.23
2018-08-10T05:00:18.216Z,7.10
2018-08-10T05:02:47.375Z,5.97
2018-08-10T05:05:17.018Z,6.10
2018-08-10T05:07:46.156Z,4.03
2018-08-10T05:10:15.404Z,7.93
2018-08-10T05:12:44.621Z,5.30
2018-08-10T05:15:13.851Z,5.17
2018-08-10T05:17:43.065Z,5.67
2018-08-10T05:20:12.698Z,7.30
2018-08-10T05:22:42.245Z,6.53
2018-08-10T05:25:11.469Z,4.17
2018-08-10T05:27:40.634Z,4.67
2018-08-10T05:30:10.847Z,6.90
2018-08-10T05:32:40.649Z,7.13
2018-08-10T05:35:10.488Z,5.17
2018-08-10T05:37:39.960Z,5.57
2018-08-10T05:40:10.180Z,3.73
2018-08-10T05:42:39.324Z,4.63
2018-08-10T05:45:08.632Z,5.17
2018-08-10T05:47:37.822Z,7.20
2018-08-10T05:50:07.269Z,8.80
2018-08-10T05:52:36.460Z,5.57
2018-08-10T05:55:06.364Z,6.83
2018-08-10T05:57:35.670Z,4.60
2018-08-10T06:00:06.072Z,3.20
2018-08-10T06:02:35.263Z,4.43
2018-08-10T06:05:04.583Z,4.73
2018-08-10T06:07:33.749Z,4.23
2018-08-10T06:10:02.869Z,4.93
2018-08-10T06:12:32.051Z,3.87
2018-08-10T06:15:01.163Z,9.53
2018-08-10T06:17:30.463Z,5.33
2018-08-10T06:19:59.654Z,5.20
2018-08-10T06:22:28.812Z,5.87
2018-08-10T06:24:58.041Z,3.30
2018-08-10T06:27:27.215Z,3.93
2018-08-10T06:29:56.413Z,3.23
2018-08-10T06:32:25.819Z,5.07
2018-08-10T06:34:55.097Z,5.10
2018-08-10T06:37:24.230Z,3.37
2018-08-10T06:39:53.414Z,5.87
2018-08-10T06:42:22.543Z,4.70
2018-08-10T06:44:51.750Z,4.93
2018-08-10T06:47:21.052Z,5.27
2018-08-10T06:49:50.207Z,5.13
2018-08-10T06:52:19.439Z,4.87
2018-08-10T06:54:48.641Z,4.00
2018-08-10T06:57:17.866Z,4.93
2018-08-10T06:59:47.093Z,3.33
2018-08-10T07:02:16.265Z,7.13
2018-08-10T07:04:46.089Z,6.37
2018-08-10T07:07:15.370Z,6.73
2018-08-10T07:09:44.621Z,4.63
2018-08-10T07:12:13.796Z,4.80
2018-08-10T07:14:43.078Z,7.13
2018-08-10T07:17:12.213Z,6.33
2018-08-10T07:19:42.051Z,6.63
2018-08-10T07:22:11.247Z,3.70
2018-08-10T07:24:40.415Z,5.00
2018-08-10T07:27:09.565Z,3.83
2018-08-10T07:29:38.716Z,5.87
2018-08-10T07:32:07.895Z,5.83
2018-08-10T07:34:37.727Z,3.77
2018-08-10T07:37:07.059Z,5.97
2018-08-10T07:39:36.221Z,5.97
2018-08-10T07:42:05.890Z,3.70
2018-08-10T07:44:35.151Z,5.50
2018-08-10T07:47:04.351Z,4.53
2018-08-10T07:49:33.540Z,5.07
2018-08-10T07:52:02.818Z,6.37
2018-08-10T07:54:31.946Z,3.80
2018-08-10T07:57:01.126Z,8.10
2018-08-10T07:59:30.400Z,7.93
2018-08-10T08:01:59.569Z,4.23
2018-08-10T08:04:28.765Z,5.80
2018-08-10T08:06:58.098Z,4.13
2018-08-10T08:09:27.274Z,5.37
2018-08-10T08:11:56.456Z,4.73
2018-08-10T08:14:25.697Z,6.40
2018-08-10T08:16:54.922Z,4.37
2018-08-10T08:19:24.129Z,7.33
2018-08-10T08:22:12.973Z,3.90
2018-08-10T08:24:42.722Z,3.97
2018-08-10T08:27:13.124Z,5.80
2018-08-10T08:29:42.261Z,3.63
2018-08-10T08:32:11.833Z,4.30
2018-08-10T08:34:41.174Z,2.97
2018-08-10T08:37:10.940Z,5.63
2018-08-10T08:40:46.118Z,3.63
2018-08-10T08:43:19.825Z,8.47
2018-08-10T08:46:12.934Z,4.50
2018-08-10T08:48:44.386Z,5.13
2018-08-10T08:51:18.331Z,4.67
2018-08-10T08:53:47.842Z,3.87
2018-08-10T08:56:19.465Z,4.97
2018-08-10T08:58:50.422Z,4.83
2018-08-10T09:01:19.682Z,4.63
2018-08-10T09:05:00.002Z,5.53
2018-08-10T09:07:29.989Z,4.70
2018-08-10T09:09:59.732Z,3.97
2018-08-10T09:12:29.245Z,4.20
2018-08-10T09:15:00.885Z,3.63
2018-08-10T09:17:30.412Z,3.67
2018-08-10T09:20:00.257Z,5.07
2018-08-10T09:22:29.658Z,5.93
2018-08-10T09:24:58.904Z,3.13
2018-08-10T09:27:28.055Z,4.03
2018-08-10T09:29:57.244Z,5.80
2018-08-10T09:32:26.434Z,4.53
2018-08-10T09:34:55.650Z,4.73
2018-08-10T09:37:24.826Z,5.90
2018-08-10T09:39:54.054Z,2.23
2018-08-10T09:42:23.294Z,1.80
2018-08-10T09:44:52.468Z,1.43
2018-08-10T09:47:21.700Z,1.57
2018-08-10T09:49:51.287Z,3.33
2018-08-10T09:52:21.060Z,4.03
2018-08-10T09:55:30.202Z,3.17
2018-08-10T09:58:02.744Z,3.77
2018-08-10T10:00:37.394Z,9.70
2018-08-10T10:03:12.919Z,6.67
2018-08-10T10:05:42.352Z,4.30
2018-08-10T10:08:11.608Z,9.20
2018-08-10T10:10:40.813Z,2.67
2018-08-10T10:13:10.042Z,3.53
2018-08-10T10:15:39.319Z,4.57
2018-08-10T10:18:10.044Z,2.40
2018-08-10T10:20:39.270Z,3.70
2018-08-10T10:23:08.509Z,3.00
2018-08-10T10:25:37.735Z,5.03
2018-08-10T10:28:07.582Z,5.00
2018-08-10T10:30:36.801Z,7.07
2018-08-10T10:33:06.113Z,5.47
2018-08-10T10:35:35.225Z,4.27
2018-08-10T10:38:04.527Z,6.13
2018-08-10T10:40:33.825Z,3.37
2018-08-10T10:43:03.085Z,3.80
2018-08-10T10:45:32.290Z,3.30
2018-08-10T10:48:01.414Z,3.97
2018-08-10T10:50:30.578Z,5.10
2018-08-10T10:53:00.967Z,5.23
2018-08-10T10:55:30.341Z,6.43
2018-08-10T10:57:59.471Z,5.40
2018-08-10T11:00:28.783Z,6.50
2018-08-10T11:02:58.003Z,8.27
2018-08-10T11:05:27.209Z,7.67
2018-08-10T11:07:56.379Z,7.60
2018-08-10T11:10:25.529Z,9.97
2018-08-10T11:12:54.697Z,8.23
2018-08-10T11:15:23.936Z,5.83
2018-08-10T11:17:53.085Z,2.50
2018-08-10T11:20:22.389Z,2.13
2018-08-10T11:22:51.544Z,4.33
2018-08-10T11:25:20.786Z,5.30
2018-08-10T11:28:16.250Z,3.87
2018-08-10T11:30:45.449Z,4.87
2018-08-10T11:33:14.743Z,2.90
2018-08-10T11:35:43.951Z,4.57
2018-08-10T11:38:13.146Z,4.50
2018-08-10T11:40:42.378Z,3.23
2018-08-10T11:43:11.597Z,3.83
2018-08-10T11:45:40.810Z,3.70
2018-08-10T11:48:10.083Z,4.40
2018-08-10T11:50:39.292Z,4.03
2018-08-10T11:53:08.493Z,7.20
2018-08-10T11:55:37.808Z,4.17
2018-08-10T11:58:07.051Z,2.90
2018-08-10T12:00:36.255Z,3.67
2018-08-10T12:03:05.460Z,3.93
2018-08-10T12:05:34.681Z,7.17
2018-08-10T12:08:03.891Z,3.87
2018-08-10T12:10:33.098Z,2.90
2018-08-10T12:13:02.303Z,2.77
2018-08-10T12:15:31.524Z,2.67
2018-08-10T12:18:00.720Z,5.07
2018-08-10T12:20:30.005Z,1.93
2018-08-10T12:22:59.171Z,2.03
2018-08-10T12:25:28.371Z,2.73
2018-08-10T12:27:57.576Z,2.73
2018-08-10T12:30:26.781Z,2.33
2018-08-10T12:32:56.008Z,3.10
2018-08-10T12:35:25.337Z,1.40
2018-08-10T12:37:54.558Z,1.60
2018-08-10T12:40:23.848Z,2.40
2018-08-10T12:42:52.951Z,3.03
2018-08-10T12:45:22.249Z,2.60
2018-08-10T12:47:51.606Z,2.97
2018-08-10T12:50:20.681Z,2.07
2018-08-10T12:52:49.872Z,2.13
2018-08-10T12:55:19.186Z,2.90
2018-08-10T12:57:48.404Z,2.70
2018-08-10T13:00:17.568Z,2.00
2018-08-10T13:02:46.771Z,3.47
2018-08-10T13:05:15.980Z,2.90
2018-08-10T13:07:45.187Z,3.00
2018-08-10T13:10:14.433Z,3.10
2018-08-10T13:12:43.614Z,2.77
2018-08-10T13:15:13.450Z,1.90
2018-08-10T13:17:42.659Z,4.07
2018-08-10T13:20:13.676Z,3.10
2018-08-10T13:22:43.084Z,2.63
2018-08-10T13:25:12.300Z,3.00
2018-08-10T13:27:48.329Z,2.60
2018-08-10T13:30:18.201Z,2.10
2018-08-10T13:32:48.195Z,3.10
2018-08-10T13:35:17.364Z,3.30
2018-08-10T13:37:46.513Z,3.53
2018-08-10T13:40:16.358Z,2.67
2018-08-10T13:42:45.648Z,2.00
2018-08-10T13:45:14.871Z,2.53
2018-08-10T13:47:44.049Z,3.53
2018-08-10T13:50:15.124Z,3.03
2018-08-10T13:52:44.486Z,2.93
2018-08-10T13:55:17.428Z,3.70
2018-08-10T13:57:47.766Z,3.50
2018-08-10T14:00:19.911Z,3.47
2018-08-10T14:02:51.002Z,3.17
2018-08-10T14:05:20.774Z,4.40
2018-08-10T14:07:50.298Z,2.50
2018-08-10T14:10:19.468Z,3.70
2018-08-10T14:12:48.708Z,3.07
2018-08-10T14:15:17.900Z,4.43
2018-08-10T14:17:47.086Z,4.27
2018-08-10T14:20:16.419Z,3.00
2018-08-10T14:22:45.548Z,3.13
2018-08-10T14:25:14.870Z,2.70
2018-08-10T14:27:44.045Z,3.47
2018-08-10T14:30:15.608Z,3.27
2018-08-10T14:32:44.832Z,3.67
2018-08-10T14:35:14.273Z,3.73
2018-08-10T14:37:43.538Z,3.87
2018-08-10T14:40:13.796Z,4.40
2018-08-10T14:42:43.013Z,3.83
2018-08-10T14:45:13.843Z,3.87
2018-08-10T14:47:43.192Z,4.07
2018-08-10T14:50:13.556Z,3.80
2018-08-10T14:52:42.802Z,3.70
2018-08-10T14:55:13.730Z,2.67
2018-08-10T14:57:43.027Z,4.60
2018-08-10T15:00:14.407Z,2.50
2018-08-10T15:02:43.666Z,2.50
2018-08-10T15:05:12.875Z,4.10
2018-08-10T15:07:42.422Z,2.63
2018-08-10T15:10:13.816Z,2.67
2018-08-10T15:12:43.437Z,3.60
2018-08-10T15:15:15.162Z,5.83
2018-08-10T15:17:44.829Z,3.80
2018-08-10T15:20:16.900Z,4.87
2018-08-10T15:22:46.244Z,4.17
2018-08-10T15:25:15.495Z,4.17
2018-08-10T15:27:44.738Z,3.23
2018-08-10T15:30:16.156Z,4.67
2018-08-10T15:32:45.328Z,5.30
2018-08-10T15:35:15.855Z,4.93
2018-08-10T15:37:45.444Z,4.00
2018-08-10T15:40:16.618Z,4.17
2018-08-10T15:42:45.897Z,4.60
2018-08-10T15:45:16.107Z,3.90
2018-08-10T15:47:45.976Z,4.50
2018-08-10T15:50:15.266Z,3.73
2018-08-10T15:52:45.568Z,2.87
2018-08-10T15:55:15.359Z,3.77
2018-08-10T15:57:44.856Z,3.20
2018-08-10T16:00:19.095Z,3.27
2018-08-10T16:02:48.708Z,3.30
2018-08-10T16:05:17.881Z,4.90
2018-08-10T16:07:47.120Z,3.57
2018-08-10T16:10:16.326Z,3.80
2018-08-10T16:12:48.895Z,3.03
2018-08-10T16:15:18.845Z,4.03
2018-08-10T16:17:48.178Z,3.70
2018-08-10T16:20:21.105Z,4.73
2018-08-10T16:22:50.701Z,6.83
2018-08-10T16:25:20.068Z,5.57
2018-08-10T16:27:49.317Z,3.83
2018-08-10T16:30:18.552Z,5.10
2018-08-10T16:32:47.794Z,4.60
2018-08-10T16:35:17.061Z,3.33
2018-08-10T16:37:47.138Z,3.40
2018-08-10T16:40:18.007Z,3.93
2018-08-10T16:42:47.384Z,4.10
2018-08-10T16:45:16.695Z,3.80
2018-08-10T16:47:46.011Z,4.70
2018-08-10T16:50:17.855Z,5.63
2018-08-10T16:52:47.220Z,6.97
2018-08-10T16:55:18.599Z,4.07
2018-08-10T16:57:48.464Z,5.30
2018-08-10T17:00:19.916Z,5.20
2018-08-10T17:02:49.296Z,4.03
2018-08-10T17:05:18.663Z,6.33
2018-08-10T17:07:47.835Z,4.57
2018-08-10T17:10:17.020Z,6.20
2018-08-10T17:12:46.597Z,4.87
2018-08-10T17:15:17.528Z,6.73
2018-08-10T17:17:47.522Z,4.73
2018-08-10T17:20:17.652Z,3.13
2018-08-10T17:22:47.144Z,5.63
2018-08-10T17:25:17.987Z,4.67
2018-08-10T17:27:47.297Z,5.43
2018-08-10T17:30:17.937Z,3.50
2018-08-10T17:32:47.205Z,3.80
2018-08-10T17:35:17.662Z,7.07
2018-08-10T17:37:47.347Z,4.57
2018-08-10T17:40:17.495Z,4.97
2018-08-10T17:42:46.857Z,7.50
2018-08-10T17:45:17.351Z,7.90
2018-08-10T17:47:46.904Z,6.00
2018-08-10T17:50:19.204Z,5.77
2018-08-10T17:52:53.113Z,5.77
2018-08-10T17:55:22.891Z,5.73
2018-08-10T17:57:52.303Z,7.83
2018-08-10T18:00:24.911Z,6.17
2018-08-10T18:02:54.714Z,6.73
2018-08-10T18:05:23.933Z,6.10
2018-08-10T18:07:53.560Z,7.50
2018-08-10T18:10:23.026Z,6.03
2018-08-10T18:12:53.148Z,6.47
2018-08-10T18:15:22.530Z,6.97
2018-08-10T18:17:52.753Z,9.03
2018-08-10T18:20:22.869Z,7.17
2018-08-10T18:22:55.740Z,7.37
2018-08-10T18:25:25.118Z,6.50
2018-08-10T18:27:54.998Z,7.57
2018-08-10T18:30:25.624Z,7.73
2018-08-10T18:32:55.278Z,9.77
2018-08-10T18:35:24.639Z,8.57
2018-08-10T18:37:54.061Z,8.13
2018-08-10T18:40:23.309Z,8.80
2018-08-10T18:42:52.589Z,8.23
2018-08-10T18:45:22.522Z,9.20
2018-08-10T18:47:51.890Z,9.20
2018-08-10T18:50:21.689Z,9.67
2018-08-10T18:52:51.029Z,10.63
2018-08-10T18:55:21.906Z,9.63
2018-08-10T18:57:51.807Z,9.97
2018-08-10T19:00:24.737Z,10.33
2018-08-10T19:02:54.646Z,10.80
2018-08-10T19:05:24.143Z,12.13
2018-08-10T19:07:53.740Z,10.93
2018-08-10T19:10:25.307Z,11.77
2018-08-10T19:12:54.691Z,11.47
2018-08-10T19:15:24.208Z,12.30
2018-08-10T19:17:54.346Z,13.40
2018-08-10T19:20:23.816Z,11.50
2018-08-10T19:22:53.326Z,13.83
2018-08-10T19:25:23.356Z,12.53
2018-08-10T19:27:52.825Z,12.63
2018-08-10T19:30:24.110Z,14.67
2018-08-10T19:32:53.675Z,11.90
2018-08-10T19:35:23.336Z,12.27
2018-08-10T19:37:53.630Z,12.07
2018-08-10T19:40:22.921Z,13.20
2018-08-10T19:42:52.272Z,11.30
2018-08-10T19:45:21.493Z,11.27
2018-08-10T19:47:51.159Z,11.47
2018-08-10T19:50:23.244Z,11.33
2018-08-10T19:52:53.003Z,12.03
2018-08-10T19:55:22.167Z,10.37
2018-08-10T19:57:51.360Z,10.37
2018-08-10T20:00:20.686Z,11.73
2018-08-10T20:02:51.065Z,11.20
2018-08-10T20:05:20.620Z,10.90
2018-08-10T20:07:49.774Z,11.43
2018-08-10T20:10:19.095Z,11.53
2018-08-10T20:12:48.408Z,12.70
2018-08-10T20:15:18.903Z,15.13
2018-08-10T20:17:48.010Z,10.60
2018-08-10T20:20:18.662Z,13.87
2018-08-10T20:22:48.109Z,14.50
2018-08-10T20:25:18.923Z,15.53
2018-08-10T20:27:48.115Z,11.97
2018-08-10T20:30:18.989Z,13.63
2018-08-10T20:32:48.663Z,12.23
2018-08-10T20:35:19.416Z,10.53
2018-08-10T20:37:48.735Z,9.93
2018-08-10T20:40:19.458Z,10.10
2018-08-10T20:42:49.246Z,9.87
2018-08-10T20:45:19.393Z,10.30
2018-08-10T20:47:48.672Z,10.60
2018-08-10T20:50:20.822Z,10.30
2018-08-10T20:52:50.032Z,9.07
2018-08-10T20:55:19.403Z,8.47
2018-08-10T20:57:49.011Z,8.27
2018-08-10T21:00:18.192Z,7.90
2018-08-10T21:02:47.430Z,8.53
2018-08-10T21:05:16.621Z,9.00
2018-08-10T21:07:45.783Z,8.20
2018-08-10T21:10:16.129Z,7.30
2018-08-10T21:12:46.080Z,6.80
2018-08-10T21:15:15.940Z,6.57
2018-08-10T21:17:45.946Z,8.90
2018-08-10T21:20:16.411Z,4.87
2018-08-10T21:22:45.665Z,4.10
2018-08-10T21:25:15.194Z,4.10
2018-08-10T21:27:45.246Z,3.97
2018-08-10T21:30:16.960Z,3.60
2018-08-10T21:32:46.215Z,3.40
2018-08-10T21:35:15.418Z,3.40
2018-08-10T21:37:44.665Z,3.17
2018-08-10T21:40:13.882Z,4.60
2018-08-10T21:42:43.359Z,3.00
2018-08-10T21:45:12.556Z,2.73
2018-08-10T21:47:41.771Z,3.07
2018-08-10T21:50:14.746Z,3.90
2018-08-10T21:52:44.778Z,3.10
2018-08-10T21:55:13.960Z,3.00
2018-08-10T21:57:43.230Z,4.07
2018-08-10T22:00:55.963Z,4.13
2018-08-10T22:03:25.116Z,4.20
2018-08-10T22:05:54.440Z,3.23
2018-08-10T22:08:24.202Z,5.57
2018-08-10T22:10:53.483Z,5.10
2018-08-10T22:13:28.709Z,4.17
2018-08-10T22:16:03.341Z,5.07
2018-08-10T22:18:37.889Z,3.53
2018-08-10T22:21:07.069Z,2.63
2018-08-10T22:23:36.227Z,2.60
2018-08-10T22:26:05.487Z,4.57
2018-08-10T22:28:34.623Z,3.50
2018-08-10T22:31:03.789Z,4.77
2018-08-10T22:33:33.022Z,3.73
2018-08-10T22:36:02.899Z,3.07
2018-08-10T22:38:32.105Z,3.13
2018-08-10T22:41:01.386Z,3.47
2018-08-10T22:43:31.223Z,3.57
2018-08-10T22:46:00.516Z,3.17
2018-08-10T22:48:29.794Z,3.63
2018-08-10T22:50:58.947Z,3.20
2018-08-10T22:53:28.230Z,3.13
2018-08-10T22:55:57.407Z,2.83
2018-08-10T22:58:26.707Z,4.67
2018-08-10T23:00:55.919Z,4.13
2018-08-10T23:03:25.109Z,3.00
2018-08-10T23:05:54.371Z,2.43
2018-08-10T23:08:23.687Z,2.17
2018-08-10T23:10:52.877Z,2.37
2018-08-10T23:13:22.105Z,2.13
2018-08-10T23:15:51.291Z,2.50
2018-08-10T23:18:20.642Z,2.53
2018-08-10T23:20:52.642Z,2.80
2018-08-10T23:23:21.836Z,2.53
2018-08-10T23:25:51.058Z,3.20
2018-08-10T23:28:20.302Z,3.40
2018-08-10T23:30:49.516Z,2.60
2018-08-10T23:33:18.692Z,2.60
2018-08-10T23:35:47.909Z,2.53
2018-08-10T23:38:17.140Z,2.30
2018-08-10T23:40:46.476Z,2.97
2018-08-10T23:43:15.811Z,2.50
2018-08-10T23:45:45.097Z,2.43
2018-08-10T23:48:14.264Z,3.23
2018-08-10T23:50:43.652Z,2.53
2018-08-10T23:53:12.793Z,2.93
2018-08-10T23:55:41.923Z,2.80
2018-08-10T23:58:11.291Z,4.17
